Time;durP1;ratioP1;P1;durP2;ratioP2;P2;SDS_P1;SDS_P2;PMS_P1;PMS_P2;Temp;Humidity;BMP_temperature;BMP_pressure;BME280_temperature;BME280_humidity;BME280_pressure;Samples;Min_cycle;Max_cycle;Signal;HPM_P1;HPM_P2
2021/03/15 00:02:21;;;;;;;7.93;3.40;;;4.60;78.90;;;;;;5106583;28;27460;-40
2021/03/15 00:05:08;;;;;;;5.97;3.40;;;4.60;78.90;;;;;;5107257;28;27473;-37
2021/03/15 00:07:52;;;;;;;4.15;3.20;;;4.60;78.90;;;;;;5107434;28;27441;-40
2021/03/15 00:10:37;;;;;;;4.13;2.85;;;4.50;78.80;;;;;;5107451;28;27460;-39
2021/03/15 00:13:22;;;;;;;6.00;2.97;;;4.50;78.60;;;;;;5107185;28;27453;-40
2021/03/15 00:16:07;;;;;;;4.53;3.03;;;4.50;78.50;;;;;;5107400;28;27398;-40
2021/03/15 00:18:51;;;;;;;4.85;3.20;;;4.40;78.50;;;;;;5103715;28;27419;-39
2021/03/15 00:21:35;;;;;;;5.53;3.25;;;4.40;78.50;;;;;;5107002;28;27416;-39
2021/03/15 00:24:20;;;;;;;4.60;3.28;;;4.30;78.40;;;;;;5106146;28;27402;-39
2021/03/15 00:27:05;;;;;;;6.10;3.40;;;4.30;78.40;;;;;;5107166;28;27324;-38
2021/03/15 00:29:51;;;;;;;5.22;3.28;;;4.20;78.50;;;;;;5103846;28;27872;-39
2021/03/15 00:32:36;;;;;;;6.05;3.70;;;4.20;78.50;;;;;;5106822;28;27647;-40
2021/03/15 00:35:20;;;;;;;5.07;3.58;;;4.20;78.60;;;;;;5107057;28;27383;-41
2021/03/15 00:38:05;;;;;;;5.97;3.30;;;4.10;78.80;;;;;;5092061;28;27405;-39
2021/03/15 00:40:49;;;;;;;5.90;4.00;;;4.10;79.00;;;;;;5106658;28;27369;-40
2021/03/15 00:43:34;;;;;;;4.68;3.50;;;4.10;79.20;;;;;;5106747;28;27385;-40
2021/03/15 00:46:18;;;;;;;4.40;3.00;;;4.10;79.70;;;;;;5106956;28;27433;-40
2021/03/15 00:49:06;;;;;;;5.15;3.22;;;4.10;79.90;;;;;;5106618;28;27344;-40
2021/03/15 00:51:51;;;;;;;4.38;3.17;;;4.10;80.00;;;;;;5103514;28;27453;-40
2021/03/15 00:54:35;;;;;;;4.40;3.30;;;4.10;80.20;;;;;;5106521;28;27555;-40
2021/03/15 00:57:27;;;;;;;3.80;2.80;;;4.10;80.20;;;;;;5102454;28;27378;-40
2021/03/15 01:00:15;;;;;;;4.75;3.15;;;4.10;81.10;;;;;;5102402;28;27440;-39
2021/03/15 01:03:26;;;;;;;3.75;3.03;;;4.10;80.50;;;;;;5104404;28;27372;-40
2021/03/15 01:06:16;;;;;;;3.33;2.50;;;4.10;80.40;;;;;;5102985;28;27423;-39
2021/03/15 01:09:21;;;;;;;5.03;3.08;;;4.20;80.50;;;;;;5103308;28;27497;-40
2021/03/15 01:12:12;;;;;;;6.25;2.70;;;4.20;80.60;;;;;;5102223;28;27383;-39
2021/03/15 01:14:57;;;;;;;3.38;2.42;;;4.20;81.40;;;;;;5102373;28;27320;-40
2021/03/15 01:17:48;;;;;;;2.80;2.30;;;4.20;80.50;;;;;;5102810;28;27493;-40
2021/03/15 01:20:34;;;;;;;2.72;2.33;;;4.20;80.70;;;;;;5104476;28;27458;-40
2021/03/15 01:23:19;;;;;;;4.45;2.75;;;4.20;80.70;;;;;;5087901;28;27487;-40
2021/03/15 01:26:04;;;;;;;3.40;2.13;;;4.20;80.50;;;;;;5105252;28;27464;-40
2021/03/15 01:28:49;;;;;;;5.20;2.33;;;4.20;80.60;;;;;;5106129;28;27446;-39
2021/03/15 01:31:33;;;;;;;2.67;2.25;;;4.20;80.60;;;;;;5105938;28;27402;-40
2021/03/15 01:34:18;;;;;;;3.40;2.20;;;4.20;80.50;;;;;;5106121;28;27450;-39
2021/03/15 01:37:03;;;;;;;3.88;2.25;;;4.20;80.40;;;;;;5105747;28;27411;-39
2021/03/15 01:39:48;;;;;;;3.20;2.40;;;4.10;80.30;;;;;;5105970;28;27510;-39
2021/03/15 01:42:32;;;;;;;3.25;2.30;;;4.10;80.30;;;;;;5105994;28;27399;-39
2021/03/15 01:45:17;;;;;;;3.90;1.95;;;4.10;80.30;;;;;;5104935;28;27435;-40
2021/03/15 01:48:02;;;;;;;4.30;2.33;;;4.10;80.40;;;;;;5102547;28;27477;-39
2021/03/15 01:50:49;;;;;;;4.15;2.20;;;4.10;80.40;;;;;;5105541;28;27490;-40
2021/03/15 01:53:33;;;;;;;3.05;1.90;;;4.00;80.60;;;;;;5105596;28;27481;-40
2021/03/15 01:56:18;;;;;;;1.88;1.70;;;4.10;80.80;;;;;;5102567;28;27404;-41
2021/03/15 01:59:02;;;;;;;2.80;2.13;;;4.10;80.80;;;;;;5104694;28;27887;-40
2021/03/15 02:01:47;;;;;;;2.20;1.90;;;4.10;80.80;;;;;;5104562;28;27535;-37
2021/03/15 02:04:31;;;;;;;3.92;1.77;;;4.10;80.80;;;;;;5101834;28;27524;-38
2021/03/15 02:07:16;;;;;;;4.32;1.98;;;4.10;80.80;;;;;;5105208;27;27633;-39
2021/03/15 02:10:00;;;;;;;3.00;1.80;;;4.10;80.70;;;;;;5105234;28;27415;-40
2021/03/15 02:13:11;;;;;;;2.45;1.63;;;4.10;80.70;;;;;;5104988;28;27332;-40
2021/03/15 02:16:29;;;;;;;3.05;1.85;;;4.10;80.70;;;;;;5105299;28;27470;-39
2021/03/15 02:19:51;;;;;;;2.33;1.70;;;4.20;80.80;;;;;;5105448;28;27387;-40
2021/03/15 07:15:14;;;;;;;5.28;2.67;;;5.70;80.80;;;;;;5141210;27;27455;-38
2021/03/15 07:18:14;;;;;;;5.97;3.55;;;5.80;80.70;;;;;;5142355;27;27468;-36
2021/03/15 07:21:00;;;;;;;4.82;2.97;;;6.00;80.20;;;;;;5142362;27;27424;-40
2021/03/15 07:23:50;;;;;;;3.67;2.42;;;6.30;79.80;;;;;;5142216;27;27326;-41
2021/03/15 07:26:36;;;;;;;5.60;2.90;;;6.50;79.00;;;;;;5142121;27;27972;-39
2021/03/15 07:29:21;;;;;;;3.97;2.58;;;6.50;78.50;;;;;;5142421;27;27370;-39
2021/03/15 07:32:06;;;;;;;5.18;2.97;;;6.50;78.30;;;;;;5127165;27;27393;-40
2021/03/15 07:34:50;;;;;;;4.75;2.85;;;6.40;78.50;;;;;;5141766;27;27386;-40
2021/03/15 07:37:35;;;;;;;3.67;2.33;;;6.30;78.90;;;;;;5138159;27;27332;-41
2021/03/15 07:40:53;;;;;;;4.65;2.45;;;6.20;79.30;;;;;;5137882;27;27332;-42
2021/03/15 07:43:37;;;;;;;5.18;2.42;;;6.00;79.80;;;;;;5139775;27;27371;-41
2021/03/15 07:46:23;;;;;;;2.97;2.28;;;5.90;80.50;;;;;;5141138;27;27254;-42
2021/03/15 07:49:19;;;;;;;5.93;2.25;;;5.80;80.80;;;;;;5142046;27;27983;-42
2021/03/15 07:52:10;;;;;;;2.80;1.75;;;5.80;81.10;;;;;;5141434;27;27399;-42
2021/03/15 07:54:56;;;;;;;3.08;1.80;;;5.80;81.40;;;;;;5141860;27;27338;-41
2021/03/15 07:57:40;;;;;;;3.80;2.08;;;5.70;81.50;;;;;;5137670;27;27334;-41
2021/03/15 08:00:26;;;;;;;7.18;2.55;;;5.70;81.70;;;;;;5123300;27;27413;-41
2021/03/15 08:03:10;;;;;;;2.75;1.98;;;5.70;81.80;;;;;;5141705;27;27519;-41
2021/03/15 08:05:57;;;;;;;3.65;2.45;;;5.80;81.70;;;;;;5141372;27;27385;-42
2021/03/15 08:08:41;;;;;;;2.30;1.80;;;5.80;81.50;;;;;;5138654;27;27312;-41
2021/03/15 08:11:26;;;;;;;2.40;1.60;;;5.90;81.50;;;;;;5139953;27;27314;-41
2021/03/15 08:14:11;;;;;;;3.22;2.10;;;6.00;81.20;;;;;;5125579;27;27420;-44
2021/03/15 08:16:55;;;;;;;3.05;1.77;;;6.00;80.70;;;;;;5141899;27;27392;-43
2021/03/15 08:19:40;;;;;;;2.75;1.50;;;6.10;80.60;;;;;;5126548;27;27402;-41
2021/03/15 08:22:27;;;;;;;2.03;1.50;;;6.20;80.40;;;;;;5140701;27;27459;-40
2021/03/15 08:25:12;;;;;;;2.53;1.60;;;6.30;79.90;;;;;;5131576;27;27540;-40
2021/03/15 08:27:57;;;;;;;1.90;1.35;;;6.30;79.70;;;;;;5123819;27;27397;-41
2021/03/15 08:30:53;;;;;;;3.97;1.50;;;6.40;79.50;;;;;;5127765;27;27381;-41
2021/03/15 08:33:38;;;;;;;2.97;1.20;;;6.50;79.30;;;;;;5124019;27;27344;-43
2021/03/15 08:36:23;;;;;;;1.65;1.33;;;6.70;79.00;;;;;;5126955;27;27539;-43
2021/03/15 08:39:40;;;;;;;1.10;0.82;;;6.80;78.60;;;;;;5124478;27;27363;-42
2021/03/15 08:42:25;;;;;;;1.30;0.90;;;6.90;78.20;;;;;;5092074;27;27622;-41
2021/03/15 08:45:26;;;;;;;1.08;0.80;;;6.90;78.00;;;;;;5127694;27;27456;-41
2021/03/15 08:48:11;;;;;;;1.15;0.88;;;6.90;78.00;;;;;;5127293;27;27381;-42
2021/03/15 08:50:58;;;;;;;0.65;0.60;;;6.80;78.00;;;;;;5127286;27;27319;-42
2021/03/15 08:53:50;;;;;;;0.70;0.70;;;6.80;78.10;;;;;;5127087;27;27334;-42
2021/03/15 08:56:37;;;;;;;0.88;0.73;;;6.80;78.30;;;;;;5126431;27;27824;-41
2021/03/15 08:59:29;;;;;;;0.50;0.47;;;6.90;78.00;;;;;;5127100;27;27468;-43
2021/03/15 09:02:14;;;;;;;0.70;0.57;;;7.10;77.70;;;;;;5126711;27;27510;-42
2021/03/15 09:05:19;;;;;;;0.60;0.60;;;7.40;77.30;;;;;;5111460;27;27387;-42
2021/03/15 09:08:03;;;;;;;0.93;0.73;;;7.60;76.60;;;;;;5126583;27;27433;-42
2021/03/15 09:10:48;;;;;;;0.65;0.60;;;7.70;76.10;;;;;;5127289;27;27414;-41
2021/03/15 09:13:33;;;;;;;1.23;0.52;;;7.70;75.90;;;;;;5125976;27;27385;-43
2021/03/15 09:16:25;;;;;;;1.55;0.73;;;7.80;75.60;;;;;;5127207;27;27375;-41
2021/03/15 09:19:18;;;;;;;1.50;0.85;;;7.80;75.80;;;;;;5112625;27;27479;-42
2021/03/15 09:22:21;;;;;;;0.70;0.70;;;7.70;75.50;;;;;;5127040;27;27437;-42
2021/03/15 09:25:18;;;;;;;4.30;0.70;;;7.70;75.70;;;;;;5126770;27;27323;-44
2021/03/15 09:28:03;;;;;;;2.42;0.70;;;7.60;76.00;;;;;;5126622;27;27386;-43
2021/03/15 09:30:47;;;;;;;1.45;0.60;;;7.60;76.10;;;;;;5126920;27;27377;-41
2021/03/15 09:33:31;;;;;;;0.45;0.45;;;7.60;76.40;;;;;;5125462;27;27381;-41
2021/03/15 09:36:29;;;;;;;0.55;0.45;;;7.60;76.30;;;;;;5125238;27;27361;-43
2021/03/15 09:39:13;;;;;;;1.30;0.70;;;7.60;76.10;;;;;;5126521;27;27327;-42
2021/03/15 09:41:58;;;;;;;0.80;0.40;;;7.70;76.40;;;;;;5111183;27;27340;-43
2021/03/15 09:44:44;;;;;;;0.70;0.60;;;7.60;76.40;;;;;;5123065;27;27319;-42
2021/03/15 09:47:28;;;;;;;0.50;0.50;;;7.60;76.30;;;;;;5126363;27;27365;-38
2021/03/15 09:50:18;;;;;;;4.60;0.63;;;7.70;76.60;;;;;;5108312;27;27337;-40
2021/03/15 09:53:13;;;;;;;1.23;0.60;;;7.80;76.30;;;;;;5122802;27;27944;-39
2021/03/15 09:56:11;;;;;;;1.02;0.45;;;7.80;75.90;;;;;;5122881;27;27452;-40
2021/03/15 09:59:12;;;;;;;0.35;0.35;;;8.00;75.50;;;;;;5124681;27;27435;-42
2021/03/15 10:02:03;;;;;;;1.23;0.60;;;8.10;75.10;;;;;;5122882;27;27370;-42
2021/03/15 10:05:07;;;;;;;0.90;0.52;;;8.30;74.80;;;;;;5126005;27;27323;-41
2021/03/15 10:08:11;;;;;;;0.98;0.70;;;8.30;74.70;;;;;;5126011;27;27332;-41
2021/03/15 10:11:22;;;;;;;2.17;0.38;;;8.40;74.40;;;;;;5114358;27;27442;-41
2021/03/15 10:14:25;;;;;;;0.98;0.68;;;8.50;74.20;;;;;;5125060;27;27332;-41
2021/03/15 10:17:42;;;;;;;0.77;0.70;;;8.50;74.00;;;;;;5097111;27;27443;-42
2021/03/15 10:20:53;;;;;;;0.60;0.60;;;8.70;73.80;;;;;;5122738;27;27372;-41
2021/03/15 10:23:43;;;;;;;0.47;0.47;;;8.90;73.40;;;;;;5122047;27;27430;-41
2021/03/15 10:26:28;;;;;;;0.75;0.57;;;9.10;72.90;;;;;;5122568;27;27475;-41
2021/03/15 10:29:16;;;;;;;1.55;0.70;;;9.30;72.50;;;;;;5110899;27;27968;-41
2021/03/15 10:32:07;;;;;;;0.50;0.45;;;9.50;72.20;;;;;;5108281;27;27493;-41
2021/03/15 10:34:56;;;;;;;0.52;0.50;;;9.70;71.90;;;;;;5121573;27;27418;-42
2021/03/15 10:37:41;;;;;;;1.25;0.75;;;9.80;71.40;;;;;;5122301;27;27389;-43
2021/03/15 10:40:42;;;;;;;1.45;0.82;;;9.90;71.20;;;;;;5122453;27;27393;-41
2021/03/15 10:43:33;;;;;;;1.58;1.40;;;10.20;70.60;;;;;;5122077;27;27380;-42
2021/03/15 10:46:53;;;;;;;1.40;1.00;;;10.50;70.60;;;;;;5122396;27;27501;-41
2021/03/15 10:49:42;;;;;;;1.52;1.00;;;11.00;68.70;;;;;;5121938;27;27386;-41
2021/03/15 10:52:49;;;;;;;2.05;1.08;;;11.30;67.60;;;;;;5124184;27;27540;-41
2021/03/15 10:55:40;;;;;;;1.75;0.80;;;11.50;67.30;;;;;;5124012;27;27367;-42
2021/03/15 10:58:37;;;;;;;0.73;0.70;;;11.50;67.00;;;;;;5121507;27;27329;-46
2021/03/15 11:01:28;;;;;;;0.98;0.73;;;11.70;66.60;;;;;;5125026;27;27465;-43
2021/03/15 11:04:30;;;;;;;0.80;0.80;;;11.80;66.60;;;;;;5121334;27;27413;-38
2021/03/15 11:07:27;;;;;;;0.70;0.70;;;11.90;66.30;;;;;;5108074;27;27423;-42
2021/03/15 11:10:16;;;;;;;1.13;0.80;;;11.80;66.20;;;;;;5121408;27;27449;-44
2021/03/15 11:13:21;;;;;;;0.82;0.70;;;11.70;66.10;;;;;;5120774;27;27475;-41
2021/03/15 11:16:17;;;;;;;0.80;0.80;;;11.70;65.90;;;;;;5125294;27;27926;-41
2021/03/15 11:19:05;;;;;;;0.93;0.88;;;11.80;65.70;;;;;;5121884;27;27366;-41
2021/03/15 11:21:55;;;;;;;0.85;0.80;;;11.90;65.70;;;;;;5124521;27;27324;-41
2021/03/15 11:24:42;;;;;;;1.63;0.93;;;11.90;65.90;;;;;;5107010;27;27332;-40
2021/03/15 11:27:37;;;;;;;0.95;0.77;;;11.80;66.00;;;;;;5121501;27;27391;-39
2021/03/15 11:30:26;;;;;;;0.88;0.70;;;11.70;66.10;;;;;;5121295;27;27462;-40
2021/03/15 11:33:34;;;;;;;0.95;0.73;;;11.50;66.20;;;;;;5123743;27;27466;-41
2021/03/15 11:36:44;;;;;;;1.25;0.82;;;11.30;66.50;;;;;;5123531;27;27416;-40
2021/03/15 11:39:31;;;;;;;0.90;0.73;;;11.10;66.70;;;;;;5121552;27;27874;-40
2021/03/15 11:42:22;;;;;;;1.00;0.73;;;11.00;67.00;;;;;;5124829;27;27386;-43
2021/03/15 11:45:08;;;;;;;0.70;0.60;;;10.90;67.10;;;;;;5120582;27;27381;-39
2021/03/15 11:47:54;;;;;;;1.38;0.77;;;10.90;66.90;;;;;;5124097;27;27336;-42
2021/03/15 11:50:57;;;;;;;1.35;1.25;;;10.90;67.10;;;;;;5124044;27;27406;-40
2021/03/15 11:53:53;;;;;;;0.77;0.77;;;10.80;67.30;;;;;;5121102;27;27382;-43
2021/03/15 11:56:38;;;;;;;0.60;0.50;;;11.00;67.10;;;;;;5124458;27;27359;-40
2021/03/15 11:59:24;;;;;;;1.42;0.80;;;11.40;66.50;;;;;;5120618;27;27381;-42
2021/03/15 12:02:19;;;;;;;0.60;0.60;;;11.80;65.70;;;;;;5110574;27;27324;-42
2021/03/15 12:05:05;;;;;;;0.60;0.60;;;12.40;64.80;;;;;;5109042;27;27397;-43
2021/03/15 12:07:51;;;;;;;0.52;0.50;;;12.90;64.20;;;;;;5124540;27;27411;-45
2021/03/15 12:10:36;;;;;;;1.42;0.63;;;13.30;63.00;;;;;;5127815;27;27410;-43
2021/03/15 12:13:25;;;;;;;1.17;0.70;;;13.70;62.00;;;;;;5123973;27;27422;-41
2021/03/15 12:16:10;;;;;;;0.63;0.63;;;14.00;61.20;;;;;;5123970;27;27347;-42
2021/03/15 12:18:55;;;;;;;0.80;0.60;;;14.30;60.40;;;;;;5126911;27;27439;-44
2021/03/15 12:21:42;;;;;;;1.02;0.70;;;14.30;60.90;;;;;;5124377;27;27320;-47
2021/03/15 12:24:42;;;;;;;1.65;1.05;;;14.30;60.50;;;;;;5123551;27;27832;-47
2021/03/15 12:27:27;;;;;;;1.65;1.10;;;14.30;60.70;;;;;;5124147;27;27482;-44
2021/03/15 12:30:13;;;;;;;1.70;1.13;;;14.30;60.60;;;;;;5124128;27;27390;-44
2021/03/15 12:32:57;;;;;;;1.15;0.98;;;14.20;60.60;;;;;;5123506;27;27422;-45
2021/03/15 12:35:43;;;;;;;1.20;1.00;;;14.00;61.10;;;;;;5123248;27;27447;-44
2021/03/15 12:38:28;;;;;;;0.93;0.85;;;13.70;61.30;;;;;;5123518;27;27509;-42
2021/03/15 12:41:13;;;;;;;1.88;1.02;;;13.40;61.60;;;;;;5123230;27;27408;-41
2021/03/15 12:44:00;;;;;;;1.40;1.00;;;13.10;61.70;;;;;;5123667;27;27393;-43
2021/03/15 12:46:47;;;;;;;1.02;0.80;;;12.80;61.80;;;;;;5126394;27;27613;-43
2021/03/15 12:49:41;;;;;;;1.23;0.80;;;12.50;62.30;;;;;;5124042;27;27524;-42
2021/03/15 12:52:30;;;;;;;1.02;0.60;;;12.30;62.90;;;;;;5123279;27;27425;-42
2021/03/15 12:55:24;;;;;;;1.20;0.80;;;12.10;63.20;;;;;;5123037;27;27421;-41
2021/03/15 12:58:11;;;;;;;1.35;0.75;;;12.10;63.50;;;;;;5123824;27;27943;-43
2021/03/15 13:00:57;;;;;;;1.58;0.75;;;12.30;63.20;;;;;;5108956;27;27410;-46
2021/03/15 13:03:45;;;;;;;0.75;0.60;;;12.50;62.80;;;;;;5123707;27;27368;-43
2021/03/15 13:06:30;;;;;;;0.82;0.70;;;12.70;62.20;;;;;;5123771;27;27334;-43
2021/03/15 13:09:41;;;;;;;1.13;0.88;;;12.80;61.60;;;;;;5123350;27;27565;-42
2021/03/15 13:12:34;;;;;;;0.70;0.70;;;12.90;60.70;;;;;;5122683;27;27405;-44
2021/03/15 13:15:26;;;;;;;0.77;0.65;;;13.00;60.60;;;;;;5123925;27;27323;-43
2021/03/15 13:18:32;;;;;;;1.52;0.82;;;13.20;60.20;;;;;;5123539;27;27378;-42
2021/03/15 13:21:18;;;;;;;1.83;1.13;;;13.50;59.70;;;;;;5123427;27;27355;-39
2021/03/15 13:24:03;;;;;;;1.23;0.93;;;13.60;59.50;;;;;;5123528;27;27410;-40
2021/03/15 13:26:51;;;;;;;2.20;0.60;;;13.40;59.50;;;;;;5123340;27;27453;-39
2021/03/15 13:29:41;;;;;;;1.13;1.02;;;13.10;59.60;;;;;;5122909;27;27402;-40
2021/03/15 13:32:28;;;;;;;1.33;1.05;;;12.70;59.90;;;;;;5122776;27;27329;-42
2021/03/15 13:35:14;;;;;;;0.95;0.80;;;12.40;60.40;;;;;;5123244;27;27390;-42
2021/03/15 13:38:03;;;;;;;1.60;0.85;;;12.20;62.20;;;;;;5122775;27;27399;-47
2021/03/15 13:40:55;;;;;;;1.38;1.25;;;12.20;61.90;;;;;;5123185;27;27379;-39
2021/03/15 13:44:02;;;;;;;2.25;1.00;;;12.60;61.70;;;;;;5122710;27;27896;-42
2021/03/15 13:46:53;;;;;;;1.27;1.17;;;12.90;60.90;;;;;;5122328;27;27374;-42
2021/03/15 13:49:40;;;;;;;3.08;1.15;;;13.30;60.40;;;;;;5108262;27;27348;-45
2021/03/15 13:52:24;;;;;;;1.10;0.85;;;13.90;60.00;;;;;;5123046;27;27320;-46
2021/03/15 13:55:10;;;;;;;1.67;1.30;;;14.60;59.10;;;;;;5123155;27;27839;-44
2021/03/15 13:57:56;;;;;;;1.77;1.00;;;15.20;57.80;;;;;;5124708;27;27495;-43
2021/03/15 14:00:47;;;;;;;2.00;1.20;;;15.80;56.70;;;;;;5122171;27;27327;-42
2021/03/15 14:03:52;;;;;;;1.15;0.90;;;16.30;55.80;;;;;;5123307;27;27424;-43
2021/03/15 14:07:02;;;;;;;1.92;1.10;;;16.80;54.80;;;;;;5121955;27;27459;-41
2021/03/15 14:09:52;;;;;;;2.83;1.20;;;17.20;53.40;;;;;;5125438;27;27400;-44
2021/03/15 14:12:59;;;;;;;3.55;1.08;;;17.40;53.40;;;;;;5122101;27;27323;-42
2021/03/15 14:15:47;;;;;;;2.63;1.05;;;17.40;53.00;;;;;;5126186;27;27419;-45
2021/03/15 14:18:32;;;;;;;2.00;1.15;;;17.10;53.20;;;;;;5125553;27;27410;-44
2021/03/15 14:21:39;;;;;;;1.27;0.93;;;17.10;54.10;;;;;;5124885;27;27499;-41
2021/03/15 14:24:24;;;;;;;3.88;1.20;;;17.20;54.00;;;;;;5120942;27;27453;-44
2021/03/15 14:27:15;;;;;;;1.05;0.90;;;17.30;53.60;;;;;;5121877;27;27559;-44
2021/03/15 14:30:00;;;;;;;1.35;1.23;;;17.20;53.60;;;;;;5125851;27;27956;-43
2021/03/15 14:32:45;;;;;;;0.95;0.90;;;16.90;53.80;;;;;;5125639;27;27468;-44
2021/03/15 14:35:37;;;;;;;2.72;1.17;;;16.50;54.40;;;;;;5123395;27;27398;-41
2021/03/15 14:38:31;;;;;;;1.55;1.15;;;16.10;54.80;;;;;;5122096;27;27384;-46
2021/03/15 14:41:16;;;;;;;1.45;1.00;;;15.60;55.50;;;;;;5125496;27;27868;-42
2021/03/15 14:44:01;;;;;;;2.85;1.30;;;15.30;56.10;;;;;;5121594;27;27397;-45
2021/03/15 14:47:06;;;;;;;1.15;1.05;;;15.00;56.60;;;;;;5122248;27;27449;-40
2021/03/15 14:50:03;;;;;;;1.85;1.25;;;14.60;57.00;;;;;;5122009;27;27361;-42
2021/03/15 14:53:09;;;;;;;2.45;0.95;;;14.30;57.50;;;;;;5122000;27;27376;-43
2021/03/15 14:55:58;;;;;;;2.50;1.27;;;14.00;57.60;;;;;;5122158;27;27567;-40
2021/03/15 14:58:43;;;;;;;1.80;0.88;;;13.70;57.90;;;;;;5121343;27;27404;-41
2021/03/15 15:01:28;;;;;;;1.50;1.30;;;13.30;58.20;;;;;;5120981;27;27468;-37
2021/03/15 15:04:18;;;;;;;1.83;0.95;;;13.10;58.60;;;;;;5122729;27;27341;-44
2021/03/15 15:07:03;;;;;;;1.67;1.33;;;12.90;59.30;;;;;;5120982;27;27389;-40
2021/03/15 15:09:59;;;;;;;2.08;1.10;;;12.80;59.10;;;;;;5121922;27;27392;-41
2021/03/15 15:12:50;;;;;;;1.80;0.93;;;12.70;59.30;;;;;;5120986;27;27416;-42
2021/03/15 15:15:41;;;;;;;1.60;1.30;;;12.50;59.40;;;;;;5120784;27;27473;-41
2021/03/15 15:18:27;;;;;;;3.20;1.15;;;12.40;59.70;;;;;;5120696;27;27434;-41
2021/03/15 15:21:12;;;;;;;1.58;0.88;;;12.20;60.10;;;;;;5124911;27;27421;-40
2021/03/15 15:24:03;;;;;;;0.90;0.88;;;12.10;60.60;;;;;;5121786;27;27440;-40
2021/03/15 15:26:47;;;;;;;1.77;1.02;;;11.90;61.10;;;;;;5125093;27;27380;-40
2021/03/15 15:29:32;;;;;;;1.10;1.00;;;11.70;61.60;;;;;;5123634;27;27374;-40
2021/03/15 15:32:16;;;;;;;1.25;1.02;;;11.60;62.40;;;;;;5121018;27;27365;-40
2021/03/15 15:35:02;;;;;;;1.73;1.20;;;11.70;62.70;;;;;;5124437;27;27457;-40
2021/03/15 15:37:48;;;;;;;2.35;1.00;;;11.80;62.90;;;;;;5128189;27;27860;-40
2021/03/15 15:40:33;;;;;;;0.98;0.88;;;11.90;63.00;;;;;;5128448;27;27385;-42
2021/03/15 15:43:18;;;;;;;1.45;1.17;;;12.10;62.90;;;;;;5128144;27;27374;-40
2021/03/15 15:46:02;;;;;;;1.70;0.93;;;12.30;62.80;;;;;;5128473;27;27322;-41
2021/03/15 15:48:48;;;;;;;2.65;1.30;;;12.40;62.50;;;;;;5124110;27;27308;-40
2021/03/15 15:51:32;;;;;;;2.40;1.15;;;12.50;62.50;;;;;;5124248;27;27328;-40
2021/03/15 15:54:21;;;;;;;1.77;1.42;;;12.60;62.30;;;;;;5124445;27;27511;-42
2021/03/15 15:57:08;;;;;;;0.88;0.88;;;12.70;62.10;;;;;;5125656;27;27423;-43
2021/03/15 15:59:53;;;;;;;2.58;1.25;;;12.70;61.90;;;;;;5128312;27;27428;-43
2021/03/15 16:02:38;;;;;;;2.33;1.27;;;12.70;61.50;;;;;;5128256;27;27535;-42
2021/03/15 16:05:23;;;;;;;2.17;1.23;;;12.70;61.40;;;;;;5127587;27;27449;-41
2021/03/15 16:08:07;;;;;;;2.53;1.35;;;12.70;61.40;;;;;;5127899;27;26918;-41
2021/03/15 16:10:52;;;;;;;2.25;1.52;;;12.60;61.40;;;;;;5128046;27;27515;-39
2021/03/15 16:13:37;;;;;;;2.25;1.38;;;12.50;61.40;;;;;;5127241;27;27542;-41
2021/03/15 16:16:23;;;;;;;2.40;1.38;;;12.30;61.60;;;;;;5127898;27;27472;-43
2021/03/15 16:19:07;;;;;;;3.63;1.70;;;12.10;61.80;;;;;;5127954;27;27451;-41
2021/03/15 16:21:52;;;;;;;1.65;1.20;;;11.90;62.00;;;;;;5127933;27;27487;-41
2021/03/15 16:24:37;;;;;;;2.53;1.27;;;11.70;62.00;;;;;;5126982;27;27446;-40
2021/03/15 16:27:22;;;;;;;2.40;1.33;;;11.60;62.20;;;;;;5127903;27;27464;-40
2021/03/15 16:30:09;;;;;;;2.40;1.40;;;11.50;62.60;;;;;;5123376;27;27487;-37
2021/03/15 16:32:54;;;;;;;1.30;1.02;;;11.30;63.10;;;;;;5127598;27;27443;-42
2021/03/15 16:35:39;;;;;;;2.42;1.58;;;11.20;63.50;;;;;;5127528;27;27419;-38
2021/03/15 16:38:24;;;;;;;2.70;1.42;;;11.10;63.90;;;;;;5127282;27;27331;-40
2021/03/15 16:41:09;;;;;;;2.72;1.60;;;11.00;63.90;;;;;;5127264;27;27476;-39
2021/03/15 16:43:56;;;;;;;6.47;1.85;;;11.00;64.10;;;;;;5108599;27;27383;-39
2021/03/15 16:46:40;;;;;;;2.53;1.13;;;10.90;64.50;;;;;;5126731;27;27405;-40
2021/03/15 16:49:25;;;;;;;4.80;1.50;;;10.80;64.70;;;;;;5127291;27;27393;-40
2021/03/15 16:52:10;;;;;;;4.38;1.52;;;10.70;65.00;;;;;;5126449;27;27411;-40
2021/03/15 16:54:55;;;;;;;3.28;1.63;;;10.50;65.00;;;;;;5123000;27;27459;-41
2021/03/15 16:57:39;;;;;;;1.83;1.52;;;10.40;65.50;;;;;;5127407;27;27410;-41
2021/03/15 17:00:24;;;;;;;2.15;1.55;;;10.30;66.00;;;;;;5123067;27;27433;-40
2021/03/15 17:03:10;;;;;;;2.13;1.38;;;10.10;66.60;;;;;;5123285;27;27451;-39
2021/03/15 17:05:55;;;;;;;3.65;1.77;;;9.90;67.10;;;;;;5122933;27;27469;-40
2021/03/15 17:08:39;;;;;;;2.45;1.48;;;9.70;67.60;;;;;;5123176;27;27429;-40
2021/03/15 17:11:24;;;;;;;2.75;1.55;;;9.60;67.90;;;;;;5127237;27;27517;-40
2021/03/15 17:14:10;;;;;;;1.92;1.45;;;9.50;68.00;;;;;;5123616;27;27410;-41
2021/03/15 17:16:54;;;;;;;2.00;1.42;;;9.40;68.30;;;;;;5122958;27;27387;-40
2021/03/15 17:19:39;;;;;;;2.40;1.35;;;9.30;68.50;;;;;;5126190;27;27452;-39
2021/03/15 17:22:23;;;;;;;2.58;1.60;;;9.20;68.70;;;;;;5126734;27;27445;-40
2021/03/15 17:25:08;;;;;;;2.42;1.60;;;9.10;68.80;;;;;;5126660;27;27405;-39
2021/03/15 17:27:56;;;;;;;1.17;1.05;;;9.00;68.80;;;;;;5126652;27;27458;-45
2021/03/15 17:30:40;;;;;;;1.55;1.13;;;8.90;68.40;;;;;;5122735;27;27320;-39
2021/03/15 17:33:25;;;;;;;2.08;1.08;;;8.90;68.40;;;;;;5126582;27;27355;-43
2021/03/15 17:36:10;;;;;;;2.55;1.17;;;8.80;67.80;;;;;;5126656;27;27340;-46
2021/03/15 17:38:55;;;;;;;1.70;1.00;;;8.70;67.80;;;;;;5126681;27;27360;-44
2021/03/15 17:41:40;;;;;;;2.17;1.20;;;8.60;68.20;;;;;;5126605;27;27547;-41
2021/03/15 17:44:24;;;;;;;2.00;1.13;;;8.40;68.90;;;;;;5126402;27;27412;-36
2021/03/15 17:47:09;;;;;;;2.17;1.13;;;8.30;69.20;;;;;;5125940;27;27633;-40
2021/03/15 17:49:54;;;;;;;4.82;1.10;;;8.30;69.60;;;;;;5126211;27;27897;-39
2021/03/15 17:52:38;;;;;;;1.35;0.95;;;8.20;70.10;;;;;;5122100;27;27497;-39
2021/03/15 17:55:22;;;;;;;2.20;1.10;;;8.10;70.40;;;;;;5126419;27;27407;-40
2021/03/15 17:58:07;;;;;;;1.05;0.95;;;8.00;70.90;;;;;;5125507;27;27470;-40
2021/03/15 18:00:52;;;;;;;1.85;0.85;;;7.90;71.20;;;;;;5126138;27;27987;-36
2021/03/15 18:03:37;;;;;;;2.85;0.82;;;7.80;71.20;;;;;;5126273;27;27401;-41
2021/03/15 18:06:22;;;;;;;1.13;0.85;;;7.80;71.50;;;;;;5126085;27;27476;-39
2021/03/15 18:09:06;;;;;;;2.03;0.80;;;7.70;71.80;;;;;;5126029;27;27472;-38
2021/03/15 18:11:51;;;;;;;2.60;1.00;;;7.60;71.90;;;;;;5126205;27;27479;-39
2021/03/15 18:14:39;;;;;;;3.03;1.33;;;7.50;72.20;;;;;;5125079;27;27467;-39
2021/03/15 18:17:24;;;;;;;1.00;0.88;;;7.40;72.40;;;;;;5126192;27;27433;-39
2021/03/15 18:20:09;;;;;;;1.80;1.30;;;7.30;72.70;;;;;;5125300;27;27434;-40
2021/03/15 18:22:54;;;;;;;2.85;1.20;;;7.30;72.80;;;;;;5126053;27;27397;-39
2021/03/15 18:25:39;;;;;;;2.60;1.17;;;7.20;72.90;;;;;;5126027;27;27539;-39
2021/03/15 18:28:23;;;;;;;2.22;1.20;;;7.10;72.90;;;;;;5107420;27;27527;-39
2021/03/15 18:31:08;;;;;;;2.00;1.30;;;7.00;73.20;;;;;;5125902;27;27414;-40
2021/03/15 18:33:52;;;;;;;2.97;1.58;;;6.90;73.40;;;;;;5121805;27;27860;-39
2021/03/15 18:36:37;;;;;;;2.45;1.58;;;6.90;73.70;;;;;;5125440;27;27423;-39
2021/03/15 18:39:22;;;;;;;1.83;1.40;;;6.80;73.80;;;;;;5125757;27;27382;-41
2021/03/15 18:42:06;;;;;;;2.05;1.40;;;6.70;74.20;;;;;;5122177;27;27411;-40
2021/03/15 18:44:51;;;;;;;2.92;1.90;;;6.70;74.50;;;;;;5125166;27;27412;-41
2021/03/15 18:47:36;;;;;;;2.97;1.80;;;6.70;74.80;;;;;;5121610;27;27600;-39
2021/03/15 18:50:20;;;;;;;1.90;1.70;;;6.70;75.10;;;;;;5122422;27;27398;-38
2021/03/15 18:53:05;;;;;;;2.05;1.48;;;6.70;75.10;;;;;;5125375;27;27389;-39
2021/03/15 18:55:49;;;;;;;2.60;1.80;;;6.60;75.10;;;;;;5125527;27;27384;-38
2021/03/15 18:58:34;;;;;;;2.28;1.63;;;6.60;75.20;;;;;;5121409;27;27423;-39
2021/03/15 19:01:18;;;;;;;2.78;1.63;;;6.60;75.20;;;;;;5125229;27;27385;-39
2021/03/15 19:04:03;;;;;;;2.65;1.70;;;6.60;75.30;;;;;;5125414;27;27374;-41
2021/03/15 19:06:48;;;;;;;2.55;1.52;;;6.60;75.40;;;;;;5122067;27;27370;-39
2021/03/15 19:09:33;;;;;;;1.80;1.50;;;6.50;75.40;;;;;;5124466;27;27622;-39
2021/03/15 19:12:17;;;;;;;1.45;1.33;;;6.50;75.50;;;;;;5121286;27;27409;-39
2021/03/15 19:15:02;;;;;;;1.95;1.40;;;6.50;75.70;;;;;;5124402;27;27359;-39
2021/03/15 19:17:46;;;;;;;2.58;1.48;;;6.40;75.70;;;;;;5124875;27;27352;-39
2021/03/15 19:20:31;;;;;;;1.70;1.52;;;6.40;75.70;;;;;;5125082;27;27512;-40
2021/03/15 19:23:16;;;;;;;1.83;1.63;;;6.40;75.80;;;;;;5124889;27;27390;-39
2021/03/15 19:26:00;;;;;;;2.28;1.50;;;6.30;75.80;;;;;;5125182;27;27361;-39
2021/03/15 19:28:46;;;;;;;2.85;1.88;;;6.30;75.90;;;;;;5125154;27;27480;-37
2021/03/15 19:31:30;;;;;;;1.77;1.38;;;6.20;75.80;;;;;;5106425;27;27326;-39
2021/03/15 19:34:15;;;;;;;1.55;1.27;;;6.10;75.70;;;;;;5124288;27;27484;-38
2021/03/15 19:36:59;;;;;;;2.13;1.25;;;6.00;75.60;;;;;;5121015;27;27421;-39
2021/03/15 19:39:44;;;;;;;1.23;1.13;;;6.00;75.70;;;;;;5124848;27;27483;-39